Time;durP1;ratioP1;P1;durP2;ratioP2;P2;SDS_P1;SDS_P2;PMS_P1;PMS_P2;Temp;Humidity;BMP_temperature;BMP_pressure;BME280_temperature;BME280_humidity;BME280_pressure;Samples;Min_cycle;Max_cycle;Signal;HPM_P1;HPM_P2
2021/09/28 00:01:50;;;;;;;1.20;1.20;;;;;;;13.51;100.00;101188.22;5121023;27;20193;-73
2021/09/28 00:04:15;;;;;;;1.63;1.30;;;;;;;13.54;100.00;101189.53;5121187;27;20238;-72
2021/09/28 00:06:40;;;;;;;5.90;1.87;;;;;;;13.54;100.00;101193.09;5111712;28;20578;-72
2021/09/28 00:09:06;;;;;;;1.97;1.20;;;;;;;13.54;100.00;101192.28;5111778;28;20188;-73
2021/09/28 00:11:31;;;;;;;2.47;0.97;;;;;;;13.51;100.00;101190.16;5111303;28;20208;-72
2021/09/28 00:13:59;;;;;;;11.10;1.93;;;;;;;13.53;100.00;101193.41;5108370;27;20244;-73
2021/09/28 00:16:24;;;;;;;2.13;1.20;;;;;;;13.47;100.00;101192.72;5113756;27;20620;-73
2021/09/28 00:18:50;;;;;;;1.23;0.93;;;;;;;13.47;100.00;101192.72;5092939;28;20268;-73
2021/09/28 00:21:15;;;;;;;2.27;1.07;;;;;;;13.45;100.00;101196.88;5111682;28;20211;-72
2021/09/28 00:23:40;;;;;;;1.27;1.17;;;;;;;13.40;100.00;101193.16;5111112;28;20213;-72
2021/09/28 00:26:06;;;;;;;1.80;1.63;;;;;;;13.36;100.00;101197.66;5110697;28;20643;-72
2021/09/28 00:28:31;;;;;;;1.90;1.50;;;;;;;13.35;100.00;101195.22;5111374;28;20165;-73
2021/09/28 00:30:56;;;;;;;1.43;1.30;;;;;;;13.32;100.00;101206.81;5110977;28;20261;-73
2021/09/28 00:33:24;;;;;;;3.77;1.83;;;;;;;13.30;100.00;101206.31;5111085;28;20173;-73
2021/09/28 00:35:49;;;;;;;2.40;1.40;;;;;;;13.27;100.00;101210.47;5110996;28;20603;-73
2021/09/28 00:38:15;;;;;;;1.30;1.20;;;;;;;13.29;100.00;101210.16;5111069;28;20204;-73
2021/09/28 00:40:40;;;;;;;2.60;1.27;;;;;;;13.28;100.00;101211.28;5111060;28;20169;-72
2021/09/28 00:43:05;;;;;;;1.63;1.53;;;;;;;13.28;100.00;101211.28;5111091;28;20177;-72
2021/09/28 00:45:31;;;;;;;2.30;1.80;;;;;;;13.27;100.00;101226.94;5110615;28;20648;-73
2021/09/28 00:47:56;;;;;;;2.60;2.40;;;;;;;13.28;100.00;101219.53;5111025;28;20169;-73
2021/09/28 00:50:22;;;;;;;2.30;1.97;;;;;;;13.30;100.00;101218.09;5110760;28;20277;-72
2021/09/28 00:52:48;;;;;;;2.20;2.00;;;;;;;13.33;100.00;101222.16;5110872;28;20490;-73
2021/09/28 00:55:15;;;;;;;3.07;2.87;;;;;;;13.35;100.00;101223.47;5110538;28;20641;-72
2021/09/28 00:57:41;;;;;;;4.30;3.80;;;;;;;13.36;100.00;101213.31;5110819;28;20303;-72
2021/09/28 01:00:09;;;;;;;4.63;3.80;;;;;;;13.35;100.00;101220.72;5110700;28;20256;-72
2021/09/28 01:02:36;;;;;;;8.40;4.37;;;;;;;13.35;100.00;101228.97;5110705;28;20196;-72
2021/09/28 01:05:03;;;;;;;4.73;4.43;;;;;;;13.38;100.00;101228.34;5110588;28;20192;-73
2021/09/28 01:07:29;;;;;;;6.47;4.90;;;;;;;13.38;100.00;101233.03;5110998;28;20172;-73
2021/09/28 01:09:55;;;;;;;6.23;5.13;;;;;;;13.35;100.00;101234.47;5110516;28;20212;-72
2021/09/28 01:12:21;;;;;;;5.57;5.10;;;;;;;13.35;100.00;101236.38;5110789;28;20193;-73
2021/09/28 01:14:46;;;;;;;5.90;4.47;;;;;;;13.33;100.00;101236.69;5110416;28;20664;-73
2021/09/28 01:17:14;;;;;;;6.30;4.60;;;;;;;13.31;100.00;101241.69;5110659;28;20256;-73
2021/09/28 01:19:39;;;;;;;4.73;4.27;;;;;;;13.30;100.00;101240.03;5110571;28;20180;-73
2021/09/28 01:22:06;;;;;;;4.47;4.03;;;;;;;13.22;100.00;101237.25;5110927;28;20173;-73
2021/09/28 01:24:32;;;;;;;6.87;5.27;;;;;;;13.17;100.00;101231.84;5109799;28;20169;-72
2021/09/28 01:26:57;;;;;;;5.77;5.17;;;;;;;13.12;100.00;101232.75;5110503;28;20187;-72
2021/09/28 01:29:23;;;;;;;4.60;4.30;;;;;;;13.09;100.00;101238.88;5110472;28;20534;-72
2021/09/28 01:31:48;;;;;;;5.40;4.63;;;;;;;13.04;100.00;101230.75;5110606;28;20296;-73
2021/09/28 01:34:16;;;;;;;6.93;4.90;;;;;;;12.97;100.00;101233.91;5110320;28;20177;-73
2021/09/28 01:36:41;;;;;;;4.70;4.40;;;;;;;12.92;100.00;101231.28;5110546;28;20162;-72
2021/09/28 01:39:08;;;;;;;3.93;3.63;;;;;;;12.85;100.00;101233.63;5110510;28;20180;-73
2021/09/28 01:41:33;;;;;;;4.43;4.13;;;;;;;12.82;100.00;101239.72;5110384;28;20267;-72
2021/09/28 01:44:06;;;;;;;4.73;4.23;;;;;;;12.78;100.00;101249.69;5110100;28;20536;-73
2021/09/28 01:46:33;;;;;;;4.53;4.17;;;;;;;12.76;100.00;101249.19;5110701;28;20176;-73
2021/09/28 01:48:58;;;;;;;4.40;4.00;;;;;;;12.72;100.00;101261.88;5110749;28;20173;-72
2021/09/28 01:51:23;;;;;;;4.27;3.97;;;;;;;12.69;100.00;101257.00;5110220;28;20204;-73
2021/09/28 01:53:49;;;;;;;4.13;3.83;;;;;;;12.67;100.00;101259.25;5091567;28;20184;-72
2021/09/28 01:56:22;;;;;;;6.33;4.03;;;;;;;12.61;100.00;101257.72;5111761;28;20168;-73
2021/09/28 01:58:48;;;;;;;4.13;3.73;;;;;;;12.56;100.00;101261.38;5114019;28;20177;-74
2021/09/28 02:01:13;;;;;;;3.97;3.57;;;;;;;12.52;100.00;101266.66;5095783;28;20181;-73
2021/09/28 02:03:38;;;;;;;6.30;3.90;;;;;;;12.47;100.00;101271.44;5095372;28;20196;-72
2021/09/28 02:06:04;;;;;;;6.33;4.60;;;;;;;12.46;100.00;101272.56;5113792;28;20189;-72
2021/09/28 02:08:29;;;;;;;3.80;3.50;;;;;;;12.44;100.00;101272.84;5113765;28;20256;-73
2021/09/28 02:10:55;;;;;;;5.80;3.93;;;;;;;12.39;100.00;101274.88;5113689;28;20201;-73
2021/09/28 02:13:20;;;;;;;5.00;4.13;;;;;;;12.36;100.00;101270.81;5095484;28;20264;-73
2021/09/28 02:15:46;;;;;;;4.10;3.80;;;;;;;12.30;100.00;101269.28;5113520;28;20600;-73
2021/09/28 02:18:11;;;;;;;5.20;4.80;;;;;;;12.28;100.00;101276.16;5113608;28;20226;-73
2021/09/28 02:20:36;;;;;;;4.33;4.00;;;;;;;12.26;100.00;101271.00;5113480;28;20208;-73
2021/09/28 02:23:02;;;;;;;4.23;3.83;;;;;;;12.24;100.00;101280.63;5113831;28;20177;-73
2021/09/28 02:25:27;;;;;;;5.83;3.50;;;;;;;12.21;100.00;101287.53;5112804;28;20635;-72
2021/09/28 02:27:53;;;;;;;5.40;4.10;;;;;;;12.17;100.00;101281.84;5113385;28;20632;-72
2021/09/28 02:30:18;;;;;;;3.50;3.10;;;;;;;12.15;100.00;101280.50;5113278;28;20205;-73
2021/09/28 02:32:44;;;;;;;3.97;3.20;;;;;;;12.12;100.00;101278.38;5113425;28;20258;-72
2021/09/28 02:35:09;;;;;;;3.30;3.03;;;;;;;12.07;100.00;101275.72;5113090;28;20165;-73
2021/09/28 02:37:35;;;;;;;4.37;4.07;;;;;;;12.03;100.00;101282.94;5113286;28;20188;-73
2021/09/28 02:40:02;;;;;;;3.80;3.50;;;;;;;11.98;100.00;101283.81;5113187;28;20261;-72
2021/09/28 02:42:27;;;;;;;5.83;5.33;;;;;;;11.94;100.00;101280.06;5113272;28;20169;-73
2021/09/28 02:44:55;;;;;;;6.10;5.60;;;;;;;11.93;100.00;101283.09;5112994;28;20181;-72
2021/09/28 02:47:21;;;;;;;4.90;4.50;;;;;;;11.91;100.00;101289.69;5094982;28;20226;-72
2021/09/28 02:49:46;;;;;;;6.80;5.70;;;;;;;11.88;100.00;101281.25;5112946;28;20173;-73
2021/09/28 02:52:11;;;;;;;5.93;5.43;;;;;;;11.87;100.00;101288.66;5113002;28;20173;-73
2021/09/28 02:54:37;;;;;;;6.27;5.67;;;;;;;11.87;100.00;101291.41;5112681;28;20211;-72
2021/09/28 02:57:02;;;;;;;1.53;1.43;;;;;;;11.87;100.00;101296.88;5112919;28;20196;-73
2021/09/28 02:59:27;;;;;;;7.63;4.20;;;;;;;11.88;100.00;101293.03;5112685;28;20174;-73
2021/09/28 03:01:53;;;;;;;5.57;4.03;;;;;;;11.89;100.00;101293.84;5112886;28;20185;-72
2021/09/28 03:04:18;;;;;;;6.10;5.50;;;;;;;11.84;100.00;101294.72;5112410;28;20177;-73
2021/09/28 03:06:44;;;;;;;4.63;4.23;;;;;;;11.83;100.00;101300.50;5112646;28;20697;-73
2021/09/28 03:09:09;;;;;;;7.23;5.17;;;;;;;11.82;100.00;101296.13;5111870;28;20172;-73
2021/09/28 03:11:34;;;;;;;5.47;5.07;;;;;;;11.79;100.00;101300.28;5112734;28;20848;-73
2021/09/28 03:14:00;;;;;;;4.03;3.63;;;;;;;11.80;100.00;101303.84;5112400;28;20259;-73
2021/09/28 03:16:25;;;;;;;6.33;5.20;;;;;;;11.79;100.00;101299.47;5112464;28;20656;-73
2021/09/28 03:18:51;;;;;;;6.00;5.50;;;;;;;11.78;100.00;101306.84;5112834;28;20201;-72
2021/09/28 03:21:16;;;;;;;6.27;5.77;;;;;;;11.78;100.00;101306.03;5112832;28;20204;-73
2021/09/28 03:23:42;;;;;;;5.17;4.37;;;;;;;11.76;100.00;101302.78;5112095;28;20170;-72
2021/09/28 03:26:07;;;;;;;5.80;5.30;;;;;;;11.76;100.00;101305.53;5111839;28;20169;-72
2021/09/28 03:28:33;;;;;;;5.63;5.13;;;;;;;11.72;100.00;101310.78;5112825;28;20518;-73
2021/09/28 03:30:59;;;;;;;6.57;5.97;;;;;;;11.71;100.00;101320.09;5093905;28;20661;-73
2021/09/28 03:33:25;;;;;;;5.57;5.17;;;;;;;11.73;100.00;101311.59;5112275;28;20173;-73
2021/09/28 03:35:51;;;;;;;5.63;5.07;;;;;;;11.70;100.00;101315.72;5112066;28;20176;-73
2021/09/28 03:38:16;;;;;;;7.10;6.20;;;;;;;11.70;100.00;101326.66;5112304;28;20169;-73
2021/09/28 03:40:41;;;;;;;7.43;5.73;;;;;;;11.67;100.00;101329.19;5111903;28;20177;-73
2021/09/28 03:43:07;;;;;;;6.77;6.13;;;;;;;11.68;100.00;101336.28;5112005;28;20169;-73
2021/09/28 03:45:34;;;;;;;7.00;6.23;;;;;;;11.68;100.00;101333.56;5111869;28;20196;-73
2021/09/28 03:47:59;;;;;;;3.30;3.10;;;;;;;11.67;100.00;101329.19;5112009;28;20230;-72
2021/09/28 03:50:27;;;;;;;6.23;5.63;;;;;;;11.69;100.00;101332.44;5111776;28;20193;-73
2021/09/28 03:52:53;;;;;;;5.23;4.73;;;;;;;11.66;100.00;101347.53;5111864;28;20596;-73
2021/09/28 03:55:21;;;;;;;4.90;4.50;;;;;;;11.64;100.00;101347.03;5121306;27;20234;-72
2021/09/28 03:57:51;;;;;;;4.50;3.90;;;;;;;11.62;100.00;101336.38;5132023;27;20176;-73
2021/09/28 04:00:20;;;;;;;4.37;3.97;;;;;;;11.62;100.00;101341.84;5118206;27;20169;-73
2021/09/28 04:02:46;;;;;;;4.43;3.73;;;;;;;11.61;100.00;101345.69;5132296;27;20248;-73
2021/09/28 04:05:12;;;;;;;4.73;4.27;;;;;;;11.61;100.00;101351.19;5131870;27;20275;-72
2021/09/28 04:07:38;;;;;;;4.70;4.30;;;;;;;11.63;100.00;101357.16;5131629;27;20532;-73
2021/09/28 04:10:05;;;;;;;5.67;4.07;;;;;;;11.62;100.00;101349.25;5131975;27;20168;-75
2021/09/28 04:12:30;;;;;;;3.33;3.03;;;;;;;11.62;100.00;101357.47;5132045;27;20181;-73
2021/09/28 04:14:58;;;;;;;6.73;3.40;;;;;;;11.64;100.00;101355.25;5132094;27;20172;-75
2021/09/28 04:17:24;;;;;;;5.30;4.03;;;;;;;11.65;100.00;101361.53;5132042;27;20173;-76
2021/09/28 04:19:49;;;;;;;5.10;3.23;;;;;;;11.64;100.00;101368.94;5131076;27;20182;-75
2021/09/28 04:22:15;;;;;;;2.70;2.50;;;;;;;11.65;100.00;101369.75;5113751;27;20260;-75
2021/09/28 04:24:40;;;;;;;4.03;3.67;;;;;;;11.65;100.00;101370.56;5131661;27;20173;-72
2021/09/28 04:27:06;;;;;;;8.80;3.70;;;;;;;11.65;100.00;101391.63;5113703;27;20184;-72
2021/09/28 04:29:31;;;;;;;3.60;3.30;;;;;;;11.66;100.00;101387.78;5131835;27;20620;-75
2021/09/28 04:31:57;;;;;;;4.03;3.63;;;;;;;11.67;100.00;101389.41;5131689;27;20746;-74
2021/09/28 04:34:22;;;;;;;2.40;2.20;;;;;;;11.64;100.00;101388.09;5113200;27;20180;-75
2021/09/28 04:36:47;;;;;;;3.77;3.33;;;;;;;11.66;100.00;101388.59;5131651;27;20271;-75
2021/09/28 04:39:13;;;;;;;4.97;4.13;;;;;;;11.62;100.00;101391.13;5131638;27;20192;-74
2021/09/28 04:41:39;;;;;;;4.33;3.80;;;;;;;11.62;100.00;101393.84;5113521;27;20187;-75
2021/09/28 04:44:04;;;;;;;6.83;3.83;;;;;;;11.60;100.00;101401.56;5131378;27;20177;-75
2021/09/28 04:46:30;;;;;;;4.13;3.67;;;;;;;11.60;100.00;101400.75;5131744;27;20243;-74
2021/09/28 04:48:55;;;;;;;4.73;4.30;;;;;;;11.58;100.00;101401.03;5131670;27;20173;-74
2021/09/28 04:51:21;;;;;;;3.43;3.23;;;;;;;11.55;100.00;101414.47;5131531;27;20204;-75
2021/09/28 04:53:46;;;;;;;3.87;3.07;;;;;;;11.52;100.00;101409.59;5131261;27;20211;-74
2021/09/28 04:56:11;;;;;;;7.87;3.33;;;;;;;11.49;100.00;101412.94;5131638;28;20197;-75
2021/09/28 04:58:37;;;;;;;4.80;3.60;;;;;;;11.47;100.00;101420.63;5131492;28;20169;-74
2021/09/28 05:01:03;;;;;;;4.97;3.53;;;;;;;11.45;100.00;101418.19;5131458;28;20183;-75
2021/09/28 05:03:28;;;;;;;4.43;4.03;;;;;;;11.44;100.00;101423.94;5131485;28;20184;-75
2021/09/28 05:05:54;;;;;;;7.27;4.23;;;;;;;11.42;100.00;101417.94;5131208;28;20200;-75
2021/09/28 05:08:19;;;;;;;5.10;4.60;;;;;;;11.43;100.00;101420.41;5131411;28;20173;-74
2021/09/28 05:10:47;;;;;;;4.10;3.10;;;;;;;11.39;100.00;101419.34;5131448;28;20768;-74
2021/09/28 05:13:12;;;;;;;4.00;3.60;;;;;;;11.41;100.00;101425.31;5131471;28;20178;-74
2021/09/28 05:15:38;;;;;;;6.17;4.30;;;;;;;11.39;100.00;101411.13;5131299;28;20530;-74
2021/09/28 05:18:03;;;;;;;7.63;2.73;;;;;;;11.37;100.00;101423.47;5131221;28;20522;-75
2021/09/28 05:20:28;;;;;;;5.53;4.70;;;;;;;11.40;100.00;101422.88;5131361;28;20703;-75
2021/09/28 05:22:54;;;;;;;6.53;5.83;;;;;;;11.39;100.00;101426.72;5131555;28;20180;-74
2021/09/28 05:25:19;;;;;;;2.83;2.63;;;;;;;11.40;100.00;101436.56;5131459;28;20176;-76
2021/09/28 05:27:44;;;;;;;8.67;5.83;;;;;;;11.40;100.00;101431.91;5131472;28;20169;-75
2021/09/28 05:30:10;;;;;;;6.30;5.53;;;;;;;11.37;100.00;101431.69;5131167;27;20744;-74
2021/09/28 05:32:35;;;;;;;6.73;6.03;;;;;;;11.38;100.00;101445.06;5138095;27;20188;-75
2021/09/28 05:35:01;;;;;;;4.60;4.20;;;;;;;11.37;100.00;101439.91;5140582;27;20176;-75
2021/09/28 05:37:26;;;;;;;7.87;6.87;;;;;;;11.38;100.00;101452.47;5136003;27;20172;-76
2021/09/28 05:39:52;;;;;;;6.93;5.97;;;;;;;11.39;100.00;101456.81;5135353;27;20534;-74
2021/09/28 05:42:17;;;;;;;10.63;8.50;;;;;;;11.41;100.00;101457.34;5135489;27;20530;-75
2021/09/28 05:44:42;;;;;;;11.10;8.17;;;;;;;11.38;100.00;101455.19;5135318;27;20229;-76
2021/09/28 05:47:08;;;;;;;9.60;8.43;;;;;;;11.38;100.00;101455.19;5135487;27;20168;-75
2021/09/28 05:49:33;;;;;;;11.13;8.63;;;;;;;11.41;100.00;101463.63;5135291;27;20591;-75
2021/09/28 05:52:00;;;;;;;13.50;8.87;;;;;;;11.38;100.00;101456.00;5135059;27;20208;-75
2021/09/28 05:54:27;;;;;;;10.20;8.13;;;;;;;11.36;100.00;101460.16;5134559;27;20229;-75
2021/09/28 05:56:53;;;;;;;10.97;8.47;;;;;;;11.33;100.00;101459.63;5135007;27;20176;-75
2021/09/28 05:59:20;;;;;;;9.03;7.63;;;;;;;11.35;100.00;101472.22;5113710;27;20187;-74
2021/09/28 06:01:48;;;;;;;12.53;9.27;;;;;;;11.36;100.00;101473.84;5129987;27;20196;-75
2021/09/28 06:04:14;;;;;;;9.53;8.50;;;;;;;11.37;100.00;101465.34;5132294;27;20215;-72
2021/09/28 06:06:40;;;;;;;11.70;9.70;;;;;;;11.41;100.00;101468.28;5134701;27;20192;-73
2021/09/28 06:09:06;;;;;;;14.50;8.80;;;;;;;11.43;100.00;101475.13;5134324;27;20252;-73
2021/09/28 06:11:31;;;;;;;12.53;10.27;;;;;;;11.46;100.00;101479.19;5134338;27;20974;-73
2021/09/28 06:13:57;;;;;;;16.27;10.83;;;;;;;11.47;100.00;101478.91;5134497;27;20176;-73
2021/09/28 06:16:22;;;;;;;11.53;10.37;;;;;;;11.53;100.00;101485.13;5134439;27;20164;-73
2021/09/28 06:18:47;;;;;;;16.40;11.50;;;;;;;11.55;100.00;101489.19;5134412;27;20179;-73
2021/09/28 06:21:13;;;;;;;10.97;9.93;;;;;;;11.57;100.00;101491.63;5134214;27;20581;-72
2021/09/28 06:23:39;;;;;;;12.37;9.77;;;;;;;11.58;100.00;101496.03;5134232;27;20169;-73
2021/09/28 06:26:04;;;;;;;10.93;9.40;;;;;;;11.60;100.00;101493.81;5134329;27;20177;-73
2021/09/28 06:28:30;;;;;;;19.03;10.20;;;;;;;11.65;100.00;101491.00;5134313;27;20200;-74
2021/09/28 06:30:57;;;;;;;12.13;9.33;;;;;;;11.69;100.00;101493.97;5133886;27;20197;-74
2021/09/28 06:33:22;;;;;;;17.90;8.90;;;;;;;11.75;100.00;101490.88;5134230;27;20184;-73
2021/09/28 06:35:48;;;;;;;9.20;8.10;;;;;;;11.78;100.00;101487.53;5133811;27;20590;-74
2021/09/28 06:38:13;;;;;;;11.30;8.43;;;;;;;11.82;100.00;101487.78;5134126;27;20208;-73
2021/09/28 06:40:39;;;;;;;10.77;8.57;;;;;;;11.85;100.00;101492.69;5134025;27;20182;-74
2021/09/28 06:43:11;;;;;;;16.73;10.53;;;;;;;11.90;100.00;101501.66;5133866;27;20552;-74
2021/09/28 06:45:36;;;;;;;16.30;10.60;;;;;;;11.98;100.00;101491.13;5115043;27;20595;-79
2021/09/28 06:48:01;;;;;;;13.03;10.30;;;;;;;12.02;100.00;101498.50;5133666;27;20209;-78
2021/09/28 06:50:27;;;;;;;13.60;9.80;;;;;;;12.12;100.00;101509.28;5115255;27;20207;-79
2021/09/28 06:52:53;;;;;;;12.93;10.00;;;;;;;12.15;100.00;101511.47;5133278;27;20189;-79
2021/09/28 06:55:19;;;;;;;18.10;11.73;;;;;;;12.24;100.00;101508.03;5133429;27;20187;-78
2021/09/28 06:57:45;;;;;;;14.27;10.27;;;;;;;12.34;100.00;101511.44;5133822;27;20256;-77
2021/09/28 07:00:11;;;;;;;15.10;10.50;;;;;;;12.40;100.00;101504.78;5133832;27;20180;-75
2021/09/28 07:02:36;;;;;;;17.80;12.20;;;;;;;12.49;100.00;101515.88;5133603;27;20177;-75
2021/09/28 07:05:02;;;;;;;13.23;10.17;;;;;;;12.61;100.00;101512.69;5133251;27;20234;-75
2021/09/28 07:07:28;;;;;;;17.77;10.83;;;;;;;12.65;100.00;101525.50;5133325;27;20180;-75
2021/09/28 07:09:53;;;;;;;15.87;12.27;;;;;;;12.74;100.00;101529.19;5133238;27;20175;-75
2021/09/28 07:12:19;;;;;;;26.33;12.03;;;;;;;12.74;100.00;101529.19;5133506;27;20183;-75
2021/09/28 07:14:44;;;;;;;17.73;11.33;;;;;;;12.80;100.00;101530.72;5114811;27;20177;-74
2021/09/28 07:17:09;;;;;;;15.63;10.03;;;;;;;12.85;100.00;101535.31;5133174;27;20297;-74
2021/09/28 07:19:35;;;;;;;10.77;8.33;;;;;;;12.81;100.00;101531.53;5133262;27;20561;-73
2021/09/28 07:22:00;;;;;;;17.03;10.40;;;;;;;12.87;100.00;101535.81;5133244;27;20255;-75
2021/09/28 07:24:25;;;;;;;15.43;9.17;;;;;;;12.92;100.00;101534.94;5133077;27;20534;-74
2021/09/28 07:26:51;;;;;;;16.53;10.87;;;;;;;12.98;100.00;101533.72;5133132;27;20176;-74
2021/09/28 07:29:17;;;;;;;14.50;12.23;;;;;;;12.97;100.00;101534.84;5133194;27;20657;-75
2021/09/28 07:31:43;;;;;;;8.87;6.93;;;;;;;13.01;100.00;101541.34;5132880;27;20204;-74
2021/09/28 07:34:09;;;;;;;15.67;11.83;;;;;;;13.10;100.00;101548.59;5133012;27;20207;-75
2021/09/28 07:36:35;;;;;;;13.60;9.60;;;;;;;13.22;100.00;101547.34;5132904;27;20164;-74
2021/09/28 07:39:01;;;;;;;18.07;11.70;;;;;;;13.31;100.00;101551.84;5133154;27;20229;-75
2021/09/28 07:41:27;;;;;;;16.27;12.27;;;;;;;13.33;100.00;101548.78;5132828;27;20173;-75
2021/09/28 07:43:52;;;;;;;5.90;5.40;;;;;;;13.35;100.00;101539.13;5132614;27;20220;-74
2021/09/28 07:46:17;;;;;;;17.10;11.43;;;;;;;13.37;100.00;101541.56;5132588;27;20168;-75
2021/09/28 07:48:45;;;;;;;20.53;11.93;;;;;;;13.48;100.00;101547.69;5132651;27;20165;-74
2021/09/28 07:51:11;;;;;;;19.60;12.10;;;;;;;13.55;100.00;101546.16;5132497;27;20200;-75
2021/09/28 07:53:36;;;;;;;16.37;9.00;;;;;;;13.60;100.00;101553.50;5131960;27;20683;-74
2021/09/28 07:56:02;;;;;;;10.40;8.03;;;;;;;13.61;100.00;101546.88;5132482;27;20287;-74
2021/09/28 07:58:28;;;;;;;20.33;10.77;;;;;;;13.64;100.00;101549.00;5132519;27;20317;-75
2021/09/28 08:00:53;;;;;;;7.13;6.43;;;;;;;13.58;100.00;101544.72;5113844;27;20271;-75
2021/09/28 08:03:20;;;;;;;11.43;8.47;;;;;;;13.34;100.00;101544.94;5132295;27;20176;-74
2021/09/28 08:05:48;;;;;;;13.80;7.93;;;;;;;13.23;100.00;101538.81;5130669;27;20188;-74
2021/09/28 08:08:13;;;;;;;11.53;9.33;;;;;;;13.20;100.00;101544.09;5132033;27;20259;-74
2021/09/28 08:10:38;;;;;;;4.27;3.87;;;;;;;13.14;100.00;101537.00;5131750;27;20340;-74
2021/09/28 08:13:05;;;;;;;15.73;10.27;;;;;;;13.09;100.00;101544.22;5132146;27;20179;-74
2021/09/28 08:15:33;;;;;;;13.47;11.00;;;;;;;13.11;100.00;101544.72;5131637;27;20620;-75
2021/09/28 08:17:58;;;;;;;15.23;11.73;;;;;;;13.18;100.00;101544.41;5131802;27;20638;-74
2021/09/28 08:20:23;;;;;;;11.17;9.50;;;;;;;13.27;100.00;101555.47;5131789;27;20180;-75
2021/09/28 08:22:49;;;;;;;17.53;11.27;;;;;;;13.33;100.00;101551.53;5131819;27;20233;-74
2021/09/28 08:25:17;;;;;;;14.83;11.63;;;;;;;13.35;100.00;101552.84;5131348;27;20181;-74
2021/09/28 08:30:27;;;;;;;15.63;12.83;;;;;;;13.26;100.00;101548.34;5131977;27;20621;-75
2021/09/28 08:32:53;;;;;;;13.57;11.20;;;;;;;13.25;100.00;101543.97;5131586;27;20299;-74
2021/09/28 08:35:19;;;;;;;18.57;12.37;;;;;;;13.34;100.00;101551.22;5131378;27;20169;-74
2021/09/28 08:37:44;;;;;;;15.13;11.30;;;;;;;13.38;100.00;101555.00;5132038;27;20177;-74
2021/09/28 08:40:13;;;;;;;11.10;8.73;;;;;;;13.44;100.00;101555.69;5131450;27;20620;-74
2021/09/28 08:42:39;;;;;;;15.10;12.90;;;;;;;13.53;100.00;101564.06;5131680;27;20225;-74
2021/09/28 08:45:05;;;;;;;13.90;10.27;;;;;;;13.59;100.00;101569.13;5131123;27;20184;-74
2021/09/28 08:47:38;;;;;;;21.17;13.27;;;;;;;13.65;100.00;101567.13;5131346;27;20570;-75
2021/09/28 08:50:07;;;;;;;11.97;9.90;;;;;;;13.63;100.00;101575.66;5131379;27;20229;-74
2021/09/28 08:52:37;;;;;;;11.37;8.97;;;;;;;13.69;100.00;101568.94;5131225;27;20481;-74
2021/09/28 08:55:03;;;;;;;7.53;6.67;;;;;;;13.73;100.00;101577.38;5131136;27;20605;-74
2021/09/28 08:57:28;;;;;;;14.17;10.27;;;;;;;13.74;100.00;101564.47;5131342;28;20261;-74
2021/09/28 08:59:54;;;;;;;15.47;12.67;;;;;;;13.83;100.00;101573.63;5131465;28;20185;-74
2021/09/28 09:02:19;;;;;;;13.27;10.27;;;;;;;13.88;100.00;101579.00;5131206;28;20277;-74
2021/09/28 09:05:01;;;;;;;8.30;6.77;;;;;;;13.70;100.00;101567.00;5130969;27;20263;-74
2021/09/28 09:07:27;;;;;;;10.10;8.67;;;;;;;13.79;100.00;101576.19;5134784;27;20171;-73
2021/09/28 09:09:52;;;;;;;9.10;8.20;;;;;;;13.70;100.00;101573.31;5135237;27;20173;-74
2021/09/28 09:12:47;;;;;;;21.87;12.40;;;;;;;13.85;100.00;101568.63;5135354;27;20235;-74
2021/09/28 09:15:21;;;;;;;8.40;7.63;;;;;;;13.92;100.00;101569.06;5103455;27;20245;-74
2021/09/28 09:17:47;;;;;;;14.83;12.43;;;;;;;13.88;100.00;101560.59;5135552;27;20217;-74
2021/09/28 09:20:27;;;;;;;18.70;12.77;;;;;;;14.03;100.00;101558.66;5135371;27;20172;-74
2021/09/28 09:22:53;;;;;;;20.07;10.47;;;;;;;14.09;100.00;101562.94;5135421;27;20172;-75
2021/09/28 09:25:21;;;;;;;7.67;6.97;;;;;;;14.18;100.00;101563.84;5134855;27;20168;-74
2021/09/28 09:27:47;;;;;;;11.10;9.90;;;;;;;14.24;100.00;101565.34;5135171;27;20181;-74
2021/09/28 09:30:21;;;;;;;12.43;10.23;;;;;;;14.38;100.00;101570.81;5134990;27;20210;-74
2021/09/28 09:32:57;;;;;;;18.47;13.03;;;;;;;14.40;100.00;101558.38;5135015;27;20643;-75
2021/09/28 09:35:29;;;;;;;15.63;11.93;;;;;;;14.45;100.00;101568.47;5134864;27;20687;-74
2021/09/28 09:38:05;;;;;;;9.73;8.80;;;;;;;14.41;100.00;101561.94;5134960;27;20172;-74
2021/09/28 09:40:42;;;;;;;21.50;11.67;;;;;;;14.38;100.00;101562.56;5134916;27;20184;-74
2021/09/28 09:43:09;;;;;;;8.40;7.57;;;;;;;14.34;100.00;101556.88;5134904;27;20179;-75
2021/09/28 09:45:34;;;;;;;14.83;11.27;;;;;;;14.40;100.00;101557.56;5134604;27;20171;-74
2021/09/28 09:48:00;;;;;;;12.17;10.63;;;;;;;14.49;100.00;101564.00;5134739;27;20173;-74
2021/09/28 09:50:27;;;;;;;12.03;10.57;;;;;;;14.59;100.00;101561.00;5134591;27;20204;-74
2021/09/28 09:53:07;;;;;;;12.87;10.30;;;;;;;14.69;100.00;101559.94;5134859;27;20620;-74
2021/09/28 09:55:34;;;;;;;10.53;9.10;;;;;;;14.71;100.00;101557.69;5134440;27;20169;-75
2021/09/28 09:58:01;;;;;;;19.77;9.00;;;;;;;14.85;100.00;101555.69;5134655;27;20263;-74
2021/09/28 10:00:27;;;;;;;12.23;11.03;;;;;;;14.98;100.00;101563.06;5134478;27;20233;-75
2021/09/28 10:02:53;;;;;;;12.07;10.27;;;;;;;14.95;100.00;101554.66;5134367;27;20707;-75
2021/09/28 10:05:18;;;;;;;4.30;3.90;;;;;;;15.05;100.00;101559.91;5115578;27;20271;-74
2021/09/28 10:07:48;;;;;;;12.27;7.87;;;;;;;15.01;100.00;101554.19;5134493;27;20200;-74
2021/09/28 10:10:18;;;;;;;10.57;9.57;;;;;;;14.93;100.00;101554.97;5134056;27;20616;-74
2021/09/28 10:12:44;;;;;;;7.80;7.00;;;;;;;14.91;100.00;101548.97;5134236;27;20169;-74
2021/09/28 10:15:14;;;;;;;10.10;9.20;;;;;;;15.02;100.00;101552.25;5133982;27;20195;-74
2021/09/28 10:17:43;;;;;;;14.07;8.17;;;;;;;15.08;100.00;101543.56;5133741;27;20168;-74
2021/09/28 10:20:20;;;;;;;14.63;8.47;;;;;;;15.04;100.00;101548.06;5134200;27;20259;-75
2021/09/28 10:22:52;;;;;;;10.43;8.23;;;;;;;15.16;100.00;101551.03;5115682;27;20207;-75
2021/09/28 10:25:21;;;;;;;8.63;7.80;;;;;;;15.36;100.00;101557.97;5133767;27;20567;-74
2021/09/28 10:27:54;;;;;;;8.40;7.60;;;;;;;15.38;100.00;101552.97;5134088;27;20173;-74
2021/09/28 10:30:28;;;;;;;8.90;7.17;;;;;;;15.46;100.00;101554.13;5133939;27;20525;-75
2021/09/28 10:32:55;;;;;;;7.53;6.83;;;;;;;15.44;99.03;101543.41;5133923;27;20175;-74
2021/09/28 10:35:20;;;;;;;12.33;7.50;;;;;;;15.54;100.00;101539.56;5133585;27;20233;-75
2021/09/28 10:38:03;;;;;;;9.67;7.00;;;;;;;15.66;99.41;101539.00;5133900;27;20173;-74
2021/09/28 10:40:31;;;;;;;11.07;7.27;;;;;;;15.75;98.15;101540.66;5133765;27;20518;-74
2021/09/28 10:43:08;;;;;;;9.77;7.90;;;;;;;15.75;96.44;101543.41;5133747;27;20172;-74
2021/09/28 10:45:36;;;;;;;7.83;6.57;;;;;;;15.83;97.72;101544.56;5133465;27;20172;-74
2021/09/28 10:48:03;;;;;;;9.10;6.23;;;;;;;15.92;96.42;101550.94;5133663;27;20200;-74
2021/09/28 10:50:39;;;;;;;6.13;5.63;;;;;;;15.91;95.47;101538.28;5133440;27;20728;-74
2021/09/28 10:53:18;;;;;;;7.03;5.77;;;;;;;16.13;93.44;101548.38;5133602;27;20176;-75
2021/09/28 10:55:56;;;;;;;8.13;5.77;;;;;;;16.10;92.38;101543.50;5114909;27;20177;-75
2021/09/28 10:58:22;;;;;;;8.77;5.37;;;;;;;16.11;94.28;101539.63;5133532;27;20279;-74
2021/09/28 11:00:53;;;;;;;7.23;5.77;;;;;;;16.09;92.49;101544.66;5133179;27;20579;-74
2021/09/28 11:03:41;;;;;;;6.67;5.97;;;;;;;16.18;93.12;101539.13;5133348;27;20176;-75
2021/09/28 11:06:07;;;;;;;9.37;5.13;;;;;;;16.12;92.37;101530.22;5128641;27;20253;-75
2021/09/28 11:08:36;;;;;;;8.10;5.70;;;;;;;16.09;92.71;101530.06;5133331;27;20176;-73
2021/09/28 11:11:07;;;;;;;8.40;5.77;;;;;;;16.08;92.77;101531.19;5126329;27;20201;-74
2021/09/28 11:13:37;;;;;;;6.93;5.63;;;;;;;16.05;93.64;101524.34;5130996;27;20696;-74